createdAt,value
2022-11-29T00:00:31.037Z,5.52
2022-11-29T00:03:22.712Z,5.42
2022-11-29T00:05:55.583Z,5.38
2022-11-29T00:08:30.066Z,5.26
2022-11-29T00:11:06.191Z,4.93
2022-11-29T00:13:39.113Z,3.90
2022-11-29T00:16:12.830Z,2.83
2022-11-29T00:18:44.838Z,1.96
2022-11-29T00:21:16.630Z,1.54
2022-11-29T00:23:48.520Z,2.44
2022-11-29T00:26:20.582Z,3.30
2022-11-29T00:28:52.616Z,3.81
2022-11-29T00:31:26.927Z,4.26
2022-11-29T00:33:59.849Z,4.61
2022-11-29T00:36:31.738Z,4.80
2022-11-29T00:39:05.181Z,4.97
2022-11-29T00:41:37.975Z,5.15
2022-11-29T00:44:13.985Z,5.22
2022-11-29T00:46:48.948Z,5.48
2022-11-29T00:49:20.866Z,5.72
2022-11-29T00:51:52.626Z,5.88
2022-11-29T00:54:24.373Z,6.01
2022-11-29T00:56:56.287Z,5.79
2022-11-29T00:59:28.144Z,4.60
2022-11-29T01:02:00.346Z,3.37
2022-11-29T01:04:32.219Z,2.39
2022-11-29T01:07:04.060Z,1.82
2022-11-29T01:09:35.819Z,2.40
2022-11-29T01:12:08.216Z,3.04
2022-11-29T01:14:39.956Z,3.48
2022-11-29T01:17:11.693Z,3.89
2022-11-29T01:19:49.321Z,4.19
2022-11-29T01:22:22.449Z,4.48
2022-11-29T01:24:54.190Z,4.76
2022-11-29T01:27:26.201Z,4.95
2022-11-29T01:29:57.964Z,5.03
2022-11-29T01:32:29.778Z,5.15
2022-11-29T01:35:01.534Z,5.38
2022-11-29T01:37:33.534Z,5.46
2022-11-29T01:40:05.808Z,5.78
2022-11-29T01:42:37.620Z,5.86
2022-11-29T01:45:22.030Z,4.73
2022-11-29T01:47:57.426Z,3.33
2022-11-29T01:50:29.201Z,2.32
2022-11-29T01:53:01.385Z,1.57
2022-11-29T01:55:34.140Z,1.24
2022-11-29T01:58:07.723Z,2.30
2022-11-29T02:00:39.739Z,3.64
2022-11-29T02:03:14.419Z,4.57
2022-11-29T02:05:49.244Z,5.16
2022-11-29T02:08:26.200Z,5.61
2022-11-29T02:11:15.695Z,5.91
2022-11-29T02:14:02.141Z,6.28
2022-11-29T02:16:43.600Z,6.61
2022-11-29T02:19:33.844Z,6.49
2022-11-29T02:22:11.893Z,5.04
2022-11-29T02:24:58.912Z,3.71
2022-11-29T02:28:04.917Z,2.64
2022-11-29T02:31:00.220Z,1.74
2022-11-29T02:33:51.551Z,1.62
2022-11-29T02:36:37.341Z,3.13
2022-11-29T02:39:29.945Z,4.38
2022-11-29T02:42:21.330Z,5.28
2022-11-29T02:45:09.900Z,5.87
2022-11-29T02:47:56.358Z,6.28
2022-11-29T02:50:40.043Z,6.57
2022-11-29T02:53:18.981Z,6.71
2022-11-29T02:55:58.265Z,6.47
2022-11-29T02:58:37.167Z,5.17
2022-11-29T03:01:17.366Z,3.84
2022-11-29T03:04:01.147Z,2.87
2022-11-29T03:06:40.623Z,2.48
2022-11-29T03:09:20.267Z,3.55
2022-11-29T03:11:59.093Z,4.60
2022-11-29T03:14:39.487Z,5.23
2022-11-29T03:17:21.270Z,5.66
2022-11-29T03:20:09.074Z,6.01
2022-11-29T03:22:48.822Z,6.32
2022-11-29T03:25:30.490Z,6.43
2022-11-29T03:28:08.242Z,6.52
2022-11-29T03:30:45.554Z,6.69
2022-11-29T03:33:26.538Z,6.58
2022-11-29T03:36:05.662Z,5.22
2022-11-29T03:38:43.825Z,3.88
2022-11-29T03:41:26.358Z,2.84
2022-11-29T03:44:04.588Z,2.42
2022-11-29T03:46:43.379Z,3.42
2022-11-29T03:49:21.864Z,4.42
2022-11-29T03:52:02.007Z,5.24
2022-11-29T03:54:43.750Z,5.87
2022-11-29T03:57:21.687Z,6.31
2022-11-29T04:00:03.443Z,6.62
2022-11-29T04:03:14.266Z,6.79
2022-11-29T04:06:09.313Z,6.95
2022-11-29T04:08:57.935Z,6.67
2022-11-29T04:12:01.235Z,5.28
2022-11-29T04:15:15.592Z,3.84
2022-11-29T04:18:11.566Z,2.69
2022-11-29T04:21:07.742Z,2.43
2022-11-29T04:24:30.411Z,3.64
2022-11-29T04:27:27.519Z,4.77
2022-11-29T04:30:10.726Z,5.37
2022-11-29T04:33:14.354Z,5.76
2022-11-29T04:36:06.736Z,6.12
2022-11-29T04:39:16.279Z,6.42
2022-11-29T04:42:10.121Z,6.57
2022-11-29T04:44:56.446Z,6.60
2022-11-29T04:47:43.675Z,6.43
2022-11-29T04:50:26.967Z,5.16
2022-11-29T04:53:25.845Z,3.94
2022-11-29T04:56:07.484Z,2.92
2022-11-29T04:58:45.441Z,2.53
2022-11-29T05:01:26.714Z,3.49
2022-11-29T05:04:06.167Z,4.54
2022-11-29T05:06:46.129Z,5.23
2022-11-29T05:09:27.191Z,5.67
2022-11-29T05:12:10.050Z,5.99
2022-11-29T05:15:03.082Z,6.23
2022-11-29T05:17:43.509Z,6.35
2022-11-29T05:20:26.838Z,6.45
2022-11-29T05:23:13.879Z,6.51
2022-11-29T05:25:53.296Z,6.36
2022-11-29T05:28:34.365Z,5.07
2022-11-29T05:31:26.611Z,3.76
2022-11-29T05:34:16.785Z,2.67
2022-11-29T05:36:56.972Z,2.44
2022-11-29T05:39:39.503Z,3.72
2022-11-29T05:42:32.142Z,4.81
2022-11-29T05:45:11.244Z,5.47
2022-11-29T05:47:49.987Z,5.94
2022-11-29T05:50:29.801Z,6.23
2022-11-29T05:53:24.366Z,6.33
2022-11-29T05:56:04.249Z,6.49
2022-11-29T05:58:49.077Z,6.76
2022-11-29T06:01:25.901Z,6.56
2022-11-29T06:04:09.065Z,5.24
2022-11-29T06:06:49.121Z,3.90
2022-11-29T06:09:28.319Z,2.99
2022-11-29T06:12:05.418Z,2.67
2022-11-29T06:14:57.153Z,3.92
2022-11-29T06:17:45.370Z,5.27
2022-11-29T06:20:27.588Z,5.99
2022-11-29T06:23:16.651Z,6.29
2022-11-29T06:26:04.396Z,6.59
2022-11-29T06:28:45.347Z,6.74
2022-11-29T06:31:22.538Z,6.56
2022-11-29T06:34:02.569Z,5.31
2022-11-29T06:36:41.795Z,4.07
2022-11-29T06:39:15.030Z,3.11
2022-11-29T06:41:47.169Z,2.71
2022-11-29T06:44:19.744Z,3.62
2022-11-29T06:46:58.742Z,4.63
2022-11-29T06:49:33.491Z,5.31
2022-11-29T06:52:16.763Z,5.74
2022-11-29T06:55:03.864Z,6.04
2022-11-29T06:57:48.112Z,6.24
2022-11-29T07:00:24.000Z,6.38
2022-11-29T07:03:28.732Z,6.46
2022-11-29T07:06:03.749Z,6.62
2022-11-29T07:08:36.421Z,6.54
2022-11-29T07:11:10.500Z,5.43
2022-11-29T07:13:43.381Z,4.18
2022-11-29T07:16:25.860Z,3.26
2022-11-29T07:19:13.144Z,2.90
2022-11-29T07:21:55.778Z,3.92
2022-11-29T07:24:41.316Z,4.86
2022-11-29T07:27:19.478Z,5.39
2022-11-29T07:30:05.546Z,5.79
2022-11-29T07:32:51.365Z,6.11
2022-11-29T07:35:33.716Z,6.32
2022-11-29T07:38:16.842Z,6.53
2022-11-29T07:40:58.508Z,6.83
2022-11-29T07:43:44.883Z,7.08
2022-11-29T07:46:16.744Z,7.07
2022-11-29T07:48:48.490Z,6.08
2022-11-29T07:51:20.356Z,5.05
2022-11-29T07:53:52.129Z,4.23
2022-11-29T07:56:23.896Z,3.59
2022-11-29T07:58:55.994Z,3.30
2022-11-29T08:01:27.851Z,3.97
2022-11-29T08:03:59.669Z,4.78
2022-11-29T08:06:31.466Z,5.40
2022-11-29T08:09:04.214Z,5.78
2022-11-29T08:11:36.001Z,6.16
2022-11-29T08:14:08.008Z,6.47
2022-11-29T08:16:39.788Z,6.76
2022-11-29T08:19:11.660Z,7.00
2022-11-29T08:21:47.057Z,7.10
2022-11-29T08:24:18.882Z,6.95
2022-11-29T08:26:51.200Z,5.98
2022-11-29T08:29:23.764Z,4.99
2022-11-29T08:31:56.266Z,4.26
2022-11-29T08:34:28.410Z,3.68
2022-11-29T08:37:00.189Z,3.53
2022-11-29T08:39:32.139Z,4.49
2022-11-29T08:42:03.869Z,5.51
2022-11-29T08:44:35.624Z,6.30
2022-11-29T08:47:25.263Z,6.75
2022-11-29T08:50:03.139Z,7.10
2022-11-29T08:52:54.909Z,7.36
2022-11-29T08:55:29.372Z,7.21
2022-11-29T08:58:06.271Z,6.21
2022-11-29T09:00:38.576Z,5.14
2022-11-29T09:03:28.022Z,4.32
2022-11-29T09:05:59.916Z,3.94
2022-11-29T09:08:31.658Z,4.59
2022-11-29T09:11:07.906Z,5.08
2022-11-29T09:13:39.845Z,5.38
2022-11-29T09:16:15.483Z,5.57
2022-11-29T09:18:51.861Z,5.76
2022-11-29T09:21:25.929Z,5.83
2022-11-29T09:23:59.824Z,6.29
2022-11-29T09:26:34.746Z,6.64
2022-11-29T09:29:08.098Z,6.98
2022-11-29T09:31:40.531Z,7.35
2022-11-29T09:34:14.955Z,7.60
2022-11-29T09:36:47.924Z,7.38
2022-11-29T09:39:20.133Z,6.30
2022-11-29T09:42:13.528Z,5.27
2022-11-29T09:44:57.310Z,4.39
2022-11-29T09:47:39.397Z,3.98
2022-11-29T09:50:22.665Z,4.63
2022-11-29T09:53:09.787Z,5.56
2022-11-29T09:55:58.360Z,6.39
2022-11-29T09:58:37.124Z,7.05
2022-11-29T10:01:13.968Z,7.49
2022-11-29T10:03:51.820Z,7.82
2022-11-29T10:06:27.951Z,7.84
2022-11-29T10:09:03.764Z,6.93
2022-11-29T10:11:42.757Z,5.90
2022-11-29T10:14:20.873Z,5.02
2022-11-29T10:16:57.485Z,4.38
2022-11-29T10:19:36.223Z,4.21
2022-11-29T10:22:15.434Z,4.99
2022-11-29T10:24:52.021Z,5.72
2022-11-29T10:27:25.096Z,6.24
2022-11-29T10:29:57.950Z,6.53
2022-11-29T10:32:32.492Z,6.67
2022-11-29T10:35:07.098Z,6.82
2022-11-29T10:37:39.379Z,6.83
2022-11-29T10:40:17.751Z,6.92
2022-11-29T10:42:49.922Z,7.16
2022-11-29T10:45:27.181Z,7.08
2022-11-29T10:48:03.882Z,6.26
2022-11-29T10:50:37.929Z,5.31
2022-11-29T10:53:11.900Z,4.59
2022-11-29T10:55:48.376Z,4.27
2022-11-29T10:58:27.880Z,4.90
2022-11-29T11:01:02.297Z,5.61
2022-11-29T11:03:40.867Z,6.26
2022-11-29T11:06:16.781Z,7.00
2022-11-29T11:08:52.482Z,7.65
2022-11-29T11:11:32.453Z,7.99
2022-11-29T11:14:07.161Z,7.83
2022-11-29T11:16:39.187Z,6.83
2022-11-29T11:19:27.816Z,5.88
2022-11-29T11:22:01.410Z,5.06
2022-11-29T11:24:35.304Z,4.48
2022-11-29T11:27:07.515Z,4.28
2022-11-29T11:29:42.073Z,4.90
2022-11-29T11:32:20.589Z,5.57
2022-11-29T11:34:56.878Z,6.16
2022-11-29T11:37:30.289Z,6.50
2022-11-29T11:40:20.677Z,6.92
2022-11-29T11:42:52.804Z,7.33
2022-11-29T11:45:35.077Z,7.54
2022-11-29T11:48:13.473Z,7.33
2022-11-29T11:50:45.562Z,6.35
2022-11-29T11:53:25.312Z,5.46
2022-11-29T11:56:01.276Z,4.79
2022-11-29T11:58:35.244Z,4.27
2022-11-29T12:01:26.027Z,4.34
2022-11-29T12:04:07.145Z,5.20
2022-11-29T12:06:44.997Z,5.83
2022-11-29T12:09:29.060Z,6.39
2022-11-29T12:12:08.433Z,6.87
2022-11-29T12:14:51.490Z,7.26
2022-11-29T12:17:33.521Z,7.09
2022-11-29T12:20:20.411Z,6.21
2022-11-29T12:23:13.861Z,5.23
2022-11-29T12:25:50.527Z,4.49
2022-11-29T12:28:26.611Z,4.31
2022-11-29T12:31:09.370Z,5.30
2022-11-29T12:33:50.990Z,6.15
2022-11-29T12:36:47.136Z,6.77
2022-11-29T12:39:38.811Z,7.01
2022-11-29T12:42:19.423Z,7.17
2022-11-29T12:45:01.148Z,7.47
2022-11-29T12:47:51.511Z,7.42
2022-11-29T12:50:36.011Z,6.15
2022-11-29T12:53:27.214Z,4.98
2022-11-29T12:56:13.693Z,4.08
2022-11-29T12:59:02.722Z,3.82
2022-11-29T13:01:59.387Z,5.02
2022-11-29T13:04:41.948Z,5.96
2022-11-29T13:07:22.762Z,6.39
2022-11-29T13:10:18.631Z,6.96
2022-11-29T13:12:55.032Z,7.40
2022-11-29T13:15:38.208Z,7.57
2022-11-29T13:18:20.788Z,6.40
2022-11-29T13:20:59.563Z,5.20
2022-11-29T13:24:07.230Z,4.35
2022-11-29T13:26:34.200Z,3.63
2022-11-29T13:29:08.540Z,3.50
2022-11-29T13:31:42.265Z,4.74
2022-11-29T13:34:20.804Z,5.91
2022-11-29T13:37:03.659Z,6.44
2022-11-29T13:40:00.583Z,6.68
2022-11-29T13:42:40.740Z,6.84
2022-11-29T13:45:22.704Z,6.57
2022-11-29T13:47:56.941Z,5.30
2022-11-29T13:50:44.503Z,4.17
2022-11-29T13:53:19.101Z,3.31
2022-11-29T13:56:00.112Z,3.10
2022-11-29T13:58:39.305Z,4.24
2022-11-29T14:01:14.597Z,5.35
2022-11-29T14:03:49.055Z,6.03
2022-11-29T14:06:23.686Z,6.48
2022-11-29T14:09:23.787Z,6.83
2022-11-29T14:12:02.401Z,6.60
2022-11-29T14:14:40.626Z,5.41
2022-11-29T14:17:35.056Z,4.34
2022-11-29T14:20:51.807Z,3.45
2022-11-29T14:23:44.430Z,3.38
2022-11-29T14:26:31.962Z,4.70
2022-11-29T14:29:06.374Z,5.79
2022-11-29T14:31:54.418Z,6.50
2022-11-29T14:34:42.154Z,6.97
2022-11-29T14:37:41.491Z,7.19
2022-11-29T14:40:27.649Z,7.11
2022-11-29T14:43:01.617Z,5.87
2022-11-29T14:45:35.793Z,4.77
2022-11-29T14:48:25.072Z,3.95
2022-11-29T14:51:10.555Z,3.62
2022-11-29T14:53:44.018Z,4.70
2022-11-29T14:56:42.587Z,5.72
2022-11-29T14:59:48.449Z,6.52
2022-11-29T15:02:34.172Z,7.11
2022-11-29T15:05:21.857Z,7.51
2022-11-29T15:08:02.890Z,7.43
2022-11-29T15:10:40.339Z,6.24
2022-11-29T15:13:16.199Z,5.14
2022-11-29T15:16:13.074Z,4.30
2022-11-29T15:19:12.279Z,3.51
2022-11-29T15:21:52.419Z,3.38
2022-11-29T15:24:28.279Z,4.50
2022-11-29T15:27:02.419Z,5.42
2022-11-29T15:29:34.675Z,5.96
2022-11-29T15:32:08.129Z,6.29
2022-11-29T15:34:45.296Z,6.60
2022-11-29T15:37:25.063Z,6.92
2022-11-29T15:40:11.831Z,6.87
2022-11-29T15:42:47.243Z,5.76
2022-11-29T15:45:36.922Z,4.69
2022-11-29T15:48:19.113Z,3.79
2022-11-29T15:51:03.755Z,3.46
2022-11-29T15:53:39.836Z,4.51
2022-11-29T15:56:16.382Z,5.49
2022-11-29T15:58:50.929Z,6.15
2022-11-29T16:01:23.621Z,6.51
2022-11-29T16:03:58.201Z,6.68
2022-11-29T16:06:35.615Z,6.59
2022-11-29T16:09:12.457Z,5.53
2022-11-29T16:11:44.744Z,4.36
2022-11-29T16:14:25.344Z,3.50
2022-11-29T16:16:59.814Z,3.15
2022-11-29T16:19:38.025Z,4.01
2022-11-29T16:22:18.410Z,4.95
2022-11-29T16:25:04.691Z,5.72
2022-11-29T16:27:37.788Z,6.45
2022-11-29T16:30:23.502Z,6.90
2022-11-29T16:32:59.156Z,7.21
2022-11-29T16:35:33.862Z,7.16
2022-11-29T16:38:18.447Z,6.00
2022-11-29T16:41:05.895Z,4.81
2022-11-29T16:43:55.371Z,3.85
2022-11-29T16:46:33.758Z,3.13
2022-11-29T16:49:36.026Z,2.98
2022-11-29T16:52:27.060Z,4.36
2022-11-29T16:54:59.326Z,5.62
2022-11-29T16:57:34.321Z,6.34
2022-11-29T17:00:13.281Z,6.82
2022-11-29T17:02:45.730Z,6.85
2022-11-29T17:05:18.047Z,5.80
2022-11-29T17:07:51.092Z,4.65
2022-11-29T17:10:26.075Z,3.79
2022-11-29T17:12:58.024Z,3.16
2022-11-29T17:15:30.379Z,3.02
2022-11-29T17:18:02.343Z,4.22
2022-11-29T17:20:34.257Z,5.36
2022-11-29T17:23:06.522Z,6.02
2022-11-29T17:25:39.129Z,6.39
2022-11-29T17:28:11.088Z,6.48
2022-11-29T17:30:43.095Z,6.65
2022-11-29T17:33:14.996Z,6.58
2022-11-29T17:35:46.796Z,5.58
2022-11-29T17:38:18.884Z,4.47
2022-11-29T17:40:51.391Z,3.62
2022-11-29T17:43:23.532Z,3.23
2022-11-29T17:45:55.469Z,4.09
2022-11-29T17:48:32.110Z,5.05
2022-11-29T17:51:17.247Z,5.62
2022-11-29T17:54:00.724Z,6.04
2022-11-29T17:56:33.053Z,6.32
2022-11-29T17:59:06.197Z,6.53
2022-11-29T18:01:38.890Z,6.87
2022-11-29T18:04:10.897Z,6.77
2022-11-29T18:06:43.617Z,5.71
2022-11-29T18:09:15.550Z,4.66
2022-11-29T18:11:49.933Z,3.83
2022-11-29T18:14:25.331Z,3.16
2022-11-29T18:16:57.437Z,2.95
2022-11-29T18:19:30.063Z,3.89
2022-11-29T18:22:02.849Z,4.94
2022-11-29T18:24:34.723Z,5.85
2022-11-29T18:27:06.637Z,6.37
2022-11-29T18:29:40.974Z,6.62
2022-11-29T18:32:12.905Z,6.56
2022-11-29T18:34:44.971Z,5.58
2022-11-29T18:37:33.715Z,4.49
2022-11-29T18:40:11.266Z,3.56
2022-11-29T18:42:43.021Z,3.20
2022-11-29T18:45:15.148Z,4.02
2022-11-29T18:47:47.203Z,4.92
2022-11-29T18:50:19.546Z,5.62
2022-11-29T18:52:55.703Z,6.05
2022-11-29T18:55:27.712Z,6.42
2022-11-29T18:57:59.467Z,6.60
2022-11-29T19:00:32.345Z,6.52
2022-11-29T19:03:04.937Z,5.62
2022-11-29T19:05:36.688Z,4.62
2022-11-29T19:08:08.846Z,3.82
2022-11-29T19:10:41.472Z,3.16
2022-11-29T19:13:13.249Z,2.90
2022-11-29T19:15:45.300Z,3.60
2022-11-29T19:18:17.201Z,4.19
2022-11-29T19:20:49.334Z,4.67
2022-11-29T19:23:21.608Z,5.24
2022-11-29T19:25:53.371Z,5.85
2022-11-29T19:28:25.134Z,6.37
2022-11-29T19:30:58.146Z,6.61
2022-11-29T19:33:29.913Z,6.49
2022-11-29T19:36:07.486Z,5.43
2022-11-29T19:38:39.810Z,4.31
2022-11-29T19:41:12.788Z,3.50
2022-11-29T19:43:45.201Z,3.06
2022-11-29T19:46:19.862Z,3.83
2022-11-29T19:48:54.529Z,4.96
2022-11-29T19:51:27.370Z,5.90
2022-11-29T19:54:03.301Z,6.51
2022-11-29T19:56:35.313Z,6.62
2022-11-29T19:59:08.800Z,5.60
2022-11-29T20:01:42.752Z,4.43
2022-11-29T20:04:16.884Z,3.57
2022-11-29T20:06:51.518Z,2.94
2022-11-29T20:09:23.745Z,2.69
2022-11-29T20:11:55.514Z,3.76
2022-11-29T20:14:27.750Z,5.14
2022-11-29T20:16:59.954Z,6.08
2022-11-29T20:19:32.199Z,6.65
2022-11-29T20:22:04.019Z,7.11
2022-11-29T20:24:41.338Z,7.21
2022-11-29T20:27:16.851Z,6.10
2022-11-29T20:29:49.305Z,4.93
2022-11-29T20:32:22.243Z,4.02
2022-11-29T20:34:55.089Z,3.33
2022-11-29T20:37:49.448Z,3.09
2022-11-29T20:40:25.561Z,4.51
2022-11-29T20:43:11.482Z,5.69
2022-11-29T20:45:44.275Z,6.46
2022-11-29T20:48:21.195Z,6.95
2022-11-29T20:50:58.388Z,7.01
2022-11-29T20:53:40.190Z,5.88
2022-11-29T20:56:13.014Z,4.65
2022-11-29T20:58:45.141Z,3.79
2022-11-29T21:01:16.972Z,3.15
2022-11-29T21:03:48.895Z,2.94
2022-11-29T21:06:20.696Z,4.18
2022-11-29T21:08:52.586Z,5.53
2022-11-29T21:11:25.430Z,6.40
2022-11-29T21:13:58.428Z,6.97
2022-11-29T21:16:34.320Z,7.09
2022-11-29T21:19:07.273Z,5.90
2022-11-29T21:21:44.923Z,4.66
2022-11-29T21:24:31.327Z,3.75
2022-11-29T21:27:04.470Z,3.06
2022-11-29T21:29:37.173Z,2.89
2022-11-29T21:32:19.435Z,4.10
2022-11-29T21:34:51.504Z,5.42
2022-11-29T21:37:27.569Z,6.17
2022-11-29T21:39:59.324Z,6.69
2022-11-29T21:42:31.290Z,6.81
2022-11-29T21:45:03.415Z,5.78
2022-11-29T21:47:35.606Z,4.62
2022-11-29T21:50:09.169Z,3.72
2022-11-29T21:52:41.045Z,3.04
2022-11-29T21:55:13.356Z,2.84
2022-11-29T21:57:45.411Z,4.11
2022-11-29T22:00:18.866Z,5.44
2022-11-29T22:02:53.196Z,6.39
2022-11-29T22:05:25.126Z,7.01
2022-11-29T22:07:59.048Z,7.12
2022-11-29T22:10:32.449Z,5.99
2022-11-29T22:13:04.601Z,4.78
2022-11-29T22:15:36.370Z,3.83
2022-11-29T22:18:08.482Z,3.11
2022-11-29T22:20:40.245Z,2.91
2022-11-29T22:23:12.086Z,4.09
2022-11-29T22:25:43.815Z,5.34
2022-11-29T22:28:15.562Z,6.15
2022-11-29T22:30:47.314Z,6.64
2022-11-29T22:33:19.083Z,7.12
2022-11-29T22:35:51.333Z,7.20
2022-11-29T22:38:23.078Z,6.10
2022-11-29T22:40:54.843Z,4.82
2022-11-29T22:43:26.600Z,3.85
2022-11-29T22:46:03.708Z,3.18
2022-11-29T22:48:38.881Z,2.97
2022-11-29T22:51:13.479Z,4.18
2022-11-29T22:53:49.829Z,5.48
2022-11-29T22:56:22.316Z,6.38
2022-11-29T22:58:54.534Z,6.94
2022-11-29T23:01:29.071Z,7.08
2022-11-29T23:04:04.101Z,6.03
2022-11-29T23:06:37.429Z,4.77
2022-11-29T23:09:12.156Z,3.78
2022-11-29T23:11:44.855Z,3.03
2022-11-29T23:14:16.565Z,2.46
2022-11-29T23:16:48.368Z,2.38
2022-11-29T23:19:21.653Z,3.79
2022-11-29T23:21:53.397Z,5.19
2022-11-29T23:24:25.282Z,6.09
2022-11-29T23:26:57.001Z,6.56
2022-11-29T23:29:28.784Z,6.91
2022-11-29T23:32:00.523Z,6.86
2022-11-29T23:34:33.702Z,5.62
2022-11-29T23:37:05.492Z,4.34
2022-11-29T23:39:38.061Z,3.41
2022-11-29T23:42:09.904Z,2.74
2022-11-29T23:44:41.699Z,2.59
2022-11-29T23:47:13.453Z,3.79
2022-11-29T23:49:45.178Z,5.01
2022-11-29T23:52:17.117Z,5.88
2022-11-29T23:54:50.171Z,6.44
2022-11-29T23:57:21.909Z,6.75
2022-11-29T23:59:53.656Z,6.68
